Time;durP1;ratioP1;P1;durP2;ratioP2;P2;SDS_P1;SDS_P2;PMS_P1;PMS_P2;Temp;Humidity;BMP_temperature;BMP_pressure;BME280_temperature;BME280_humidity;BME280_pressure;Samples;Min_cycle;Max_cycle;Signal;HPM_P1;HPM_P2
2023/04/15 00:02:20;;;;;;;;;5.50;3.75;;;;;22.52;39.19;99847.31;5076702;27;45596;-68
2023/04/15 00:04:46;;;;;;;;;3.25;2.75;;;;;22.54;38.61;99845.34;5076104;27;62985;-68
2023/04/15 00:07:12;;;;;;;;;4.50;4.00;;;;;22.52;39.16;99839.31;5078689;27;45717;-68
2023/04/15 00:09:37;;;;;;;;;3.25;3.25;;;;;22.52;39.33;99839.31;5081806;27;45413;-68
2023/04/15 00:12:03;;;;;;;;;3.00;2.75;;;;;22.53;39.01;99831.19;5080456;27;45445;-68
2023/04/15 00:14:29;;;;;;;;;4.50;2.50;;;;;22.52;39.31;99821.53;5060945;28;47752;-68
2023/04/15 00:16:56;;;;;;;;;3.00;3.00;;;;;22.54;39.40;99813.34;5071986;27;45496;-68
2023/04/15 00:19:21;;;;;;;;;2.25;2.25;;;;;22.52;39.02;99804.66;5083639;27;45724;-69
2023/04/15 00:21:47;;;;;;;;;3.00;2.25;;;;;22.52;39.29;99805.53;5084276;27;45401;-69
2023/04/15 00:24:12;;;;;;;;;2.75;2.75;;;;;22.53;39.17;99801.03;5076058;28;74940;-69
2023/04/15 00:26:38;;;;;;;;;4.50;3.00;;;;;22.53;38.79;99798.34;5079763;27;45390;-69
2023/04/15 00:29:03;;;;;;;;;3.00;2.25;;;;;22.52;38.89;99805.53;5077006;27;46589;-69
2023/04/15 00:31:29;;;;;;;;;4.00;2.00;;;;;22.48;39.36;99796.09;5074044;27;45237;-69
2023/04/15 00:33:54;;;;;;;;;3.75;3.75;;;;;22.52;39.23;99792.19;5057123;27;46944;-69
2023/04/15 00:36:20;;;;;;;;;2.00;2.00;;;;;22.52;39.00;99799.31;5077379;27;73456;-69
2023/04/15 00:38:45;;;;;;;;;3.00;3.00;;;;;22.50;39.20;99790.63;5073295;27;63354;-69
2023/04/15 00:41:11;;;;;;;;;2.25;2.25;;;;;22.51;39.07;99784.34;5055570;27;45458;-69
2023/04/15 00:43:37;;;;;;;;;4.00;4.00;;;;;22.52;39.30;99786.00;5072542;27;46996;-69
2023/04/15 00:46:03;;;;;;;;;3.00;3.00;;;;;22.52;38.99;99783.34;5079206;27;47196;-69
2023/04/15 00:48:29;;;;;;;;;2.75;2.00;;;;;22.51;39.23;99782.50;5084073;27;45596;-69
2023/04/15 00:50:55;;;;;;;;;1.25;1.25;;;;;22.50;39.26;99782.63;5079809;27;45500;-69
2023/04/15 00:53:20;;;;;;;;;4.00;3.25;;;;;22.50;38.81;99779.97;5077721;27;46484;-69
2023/04/15 00:55:45;;;;;;;;;4.00;3.50;;;;;22.47;38.91;99780.25;5078163;28;45410;-69
2023/04/15 00:58:11;;;;;;;;;2.25;1.50;;;;;22.49;38.80;99779.13;5077135;27;56338;-69
2023/04/15 01:00:36;;;;;;;;;2.00;1.25;;;;;22.51;38.61;99782.50;5075533;27;45303;-68
2023/04/15 01:03:02;;;;;;;;;1.50;1.50;;;;;22.48;38.75;99779.28;5068425;27;73019;-69
2023/04/15 01:05:27;;;;;;;;;2.75;2.00;;;;;22.48;39.02;99782.78;5079516;27;45677;-69
2023/04/15 01:07:54;;;;;;;;;1.50;1.25;;;;;22.47;38.61;99769.56;5083577;27;45590;-68
2023/04/15 01:10:20;;;;;;;;;5.00;2.25;;;;;22.49;38.90;99778.31;5078086;27;46916;-69
2023/04/15 01:12:45;;;;;;;;;3.50;2.00;;;;;22.48;38.96;99771.28;5081515;27;46465;-69
2023/04/15 01:15:14;;;;;;;;;5.00;3.00;;;;;22.49;39.03;99772.97;5075602;27;45426;-69
2023/04/15 01:17:40;;;;;;;;;4.00;2.50;;;;;22.48;38.85;99777.44;5077310;27;45371;-68
2023/04/15 01:20:08;;;;;;;;;0.75;0.75;;;;;22.50;39.03;99777.31;5077294;27;45505;-69
2023/04/15 01:22:35;;;;;;;;;1.50;1.50;;;;;22.47;39.12;99778.44;5074829;27;45566;-68
2023/04/15 01:25:07;;;;;;;;;2.25;1.25;;;;;22.48;38.73;99774.78;5063117;27;45553;-68
2023/04/15 01:27:34;;;;;;;;;2.00;2.00;;;;;22.46;39.10;99763.41;5087034;27;45524;-68
2023/04/15 01:29:59;;;;;;;;;0.25;0.25;;;;;22.48;38.55;99772.09;5093224;27;45369;-69
2023/04/15 01:32:24;;;;;;;;;2.00;2.00;;;;;22.45;39.07;99756.41;5072220;27;71312;-69
2023/04/15 01:34:50;;;;;;;;;3.00;1.25;;;;;22.46;38.69;99757.25;5065217;27;45489;-69
2023/04/15 01:37:15;;;;;;;;;4.00;2.00;;;;;22.48;39.09;99763.28;5075298;27;57043;-69
2023/04/15 01:39:41;;;;;;;;;5.00;2.00;;;;;22.47;38.86;99769.56;5076878;27;45603;-69
2023/04/15 01:42:06;;;;;;;;;2.25;1.25;;;;;22.45;39.10;99758.22;5077470;28;64923;-69
2023/04/15 01:44:31;;;;;;;;;2.75;2.00;;;;;22.46;38.46;99770.59;5075012;27;45493;-69
2023/04/15 01:46:57;;;;;;;;;2.75;2.75;;;;;22.46;38.99;99771.41;5057015;28;69445;-69
2023/04/15 01:49:22;;;;;;;;;1.00;1.00;;;;;22.46;39.12;99765.25;5063189;27;45583;-69
2023/04/15 01:51:48;;;;;;;;;2.00;1.50;;;;;22.45;38.74;99772.41;5084595;27;46311;-69
2023/04/15 01:54:13;;;;;;;;;3.00;2.00;;;;;22.45;38.28;99783.09;5089832;27;54982;-68
2023/04/15 01:56:39;;;;;;;;;3.50;2.00;;;;;22.46;38.79;99786.59;5076773;27;45389;-68
2023/04/15 01:59:05;;;;;;;;;2.25;1.25;;;;;22.46;38.53;99779.41;5080870;27;45791;-68
2023/04/15 02:01:30;;;;;;;;;2.00;2.00;;;;;22.44;38.89;99784.06;5047017;28;47200;-68
2023/04/15 02:03:56;;;;;;;;;3.00;1.50;;;;;22.44;38.47;99781.38;5073768;27;46763;-69
2023/04/15 02:06:21;;;;;;;;;1.00;1.00;;;;;22.44;38.83;99784.06;5063847;28;59591;-68
2023/04/15 02:08:46;;;;;;;;;1.25;1.25;;;;;22.45;38.39;99777.75;5061645;27;45449;-68
2023/04/15 02:11:12;;;;;;;;;4.00;3.00;;;;;22.44;38.82;99784.06;5070425;27;47022;-68
2023/04/15 02:13:37;;;;;;;;;2.00;1.25;;;;;22.43;38.88;99787.69;5075386;28;45317;-69
2023/04/15 02:16:02;;;;;;;;;2.00;2.00;;;;;22.44;38.85;99789.38;5070064;28;61757;-69
2023/04/15 02:18:28;;;;;;;;;2.25;2.00;;;;;22.45;38.91;99784.88;5081738;27;45517;-69
2023/04/15 02:20:55;;;;;;;;;2.00;2.00;;;;;22.42;39.00;99786.03;5073011;28;70656;-69
2023/04/15 02:23:20;;;;;;;;;1.25;0.75;;;;;22.43;38.81;99790.34;5074358;28;45358;-69
2023/04/15 02:25:46;;;;;;;;;1.00;1.00;;;;;22.45;38.39;99799.06;5074339;27;61626;-69
2023/04/15 02:28:11;;;;;;;;;2.50;2.25;;;;;22.42;38.66;99794.03;5075214;27;45833;-69
2023/04/15 02:30:37;;;;;;;;;1.75;1.50;;;;;22.43;38.84;99808.19;5075875;27;62860;-69
2023/04/15 02:33:02;;;;;;;;;2.00;1.50;;;;;22.42;38.58;99804.69;5078376;27;45482;-69
2023/04/15 02:35:27;;;;;;;;;2.00;2.00;;;;;22.44;38.36;99816.03;5060808;28;46113;-69
2023/04/15 02:37:53;;;;;;;;;1.25;1.25;;;;;22.44;38.35;99817.88;5073312;27;66577;-69
2023/04/15 02:40:18;;;;;;;;;3.25;1.25;;;;;22.43;38.63;99814.34;5077644;27;46732;-69
2023/04/15 02:42:44;;;;;;;;;1.75;0.50;;;;;22.42;38.46;99817.19;5082862;27;45338;-69
2023/04/15 02:45:11;;;;;;;;;0.50;0.50;;;;;22.41;38.83;99813.66;5058601;28;45610;-68
2023/04/15 02:47:38;;;;;;;;;2.00;2.00;;;;;22.43;38.58;99816.19;5076342;27;45710;-68
2023/04/15 02:50:04;;;;;;;;;0.25;0.25;;;;;22.42;38.72;99825.19;5092360;27;46169;-68
2023/04/15 02:52:30;;;;;;;;;1.00;1.00;;;;;22.42;38.92;99827.84;5075973;28;45409;-68
2023/04/15 02:54:59;;;;;;;;;3.50;2.00;;;;;22.42;38.49;99828.69;5077451;27;45892;-68
2023/04/15 02:57:26;;;;;;;;;2.00;2.00;;;;;22.42;38.40;99833.19;5081343;28;45350;-68
2023/04/15 02:59:51;;;;;;;;;2.00;2.00;;;;;22.41;38.38;99837.66;5079821;27;45672;-68
2023/04/15 03:02:16;;;;;;;;;4.00;1.00;;;;;22.42;38.82;99846.50;5081584;27;66773;-68
2023/04/15 03:04:42;;;;;;;;;1.25;0.25;;;;;22.40;38.69;99840.44;5080860;27;45665;-68
2023/04/15 03:07:07;;;;;;;;;0.00;0.00;;;;;22.39;38.74;99844.09;5073124;27;63524;-68
2023/04/15 03:09:32;;;;;;;;;1.75;1.25;;;;;22.42;38.76;99851.84;5080332;27;46221;-68
2023/04/15 03:11:58;;;;;;;;;0.75;0.75;;;;;22.41;38.50;99863.47;5084818;27;51529;-68
2023/04/15 03:14:23;;;;;;;;;1.75;1.75;;;;;22.41;38.75;99860.81;5074250;27;59004;-68
2023/04/15 03:16:50;;;;;;;;;1.00;1.00;;;;;22.42;38.21;99868.66;5092870;27;45610;-68
2023/04/15 03:19:16;;;;;;;;;2.50;2.50;;;;;22.39;38.29;99866.28;5060390;27;47431;-68
2023/04/15 03:21:41;;;;;;;;;3.00;1.75;;;;;22.40;38.75;99864.44;5078915;27;60508;-68
2023/04/15 03:24:06;;;;;;;;;1.50;1.50;;;;;22.39;38.71;99874.25;5075187;28;45504;-68
2023/04/15 03:26:31;;;;;;;;;1.00;1.00;;;;;22.40;38.49;99873.31;5079933;27;74110;-68
2023/04/15 03:28:57;;;;;;;;;1.00;1.00;;;;;22.39;38.55;99879.59;5078508;27;69504;-68
2023/04/15 03:31:22;;;;;;;;;0.25;0.25;;;;;22.39;38.61;99873.44;5080764;27;67478;-68
2023/04/15 03:33:48;;;;;;;;;3.00;3.00;;;;;22.36;38.16;99877.19;5083363;27;46903;-68
2023/04/15 03:36:13;;;;;;;;;2.00;2.00;;;;;22.35;38.67;99876.38;5076258;27;45529;-68
2023/04/15 03:38:39;;;;;;;;;1.75;1.75;;;;;22.39;38.47;99876.09;5082155;27;46481;-68
2023/04/15 03:41:04;;;;;;;;;2.00;2.00;;;;;22.37;38.47;99879.72;5080475;27;45674;-68
2023/04/15 03:43:30;;;;;;;;;0.50;0.50;;;;;22.36;38.47;99875.41;5078765;27;45466;-68
2023/04/15 03:45:55;;;;;;;;;3.00;1.00;;;;;22.36;38.52;99888.72;5074924;28;46890;-68
2023/04/15 03:48:20;;;;;;;;;1.75;1.75;;;;;22.35;38.21;99879.03;5081680;27;61374;-68
2023/04/15 03:50:46;;;;;;;;;1.25;0.25;;;;;22.36;38.80;99887.88;5079213;27;72131;-68
2023/04/15 03:53:11;;;;;;;;;0.75;0.75;;;;;22.35;38.18;99891.53;5075710;28;50246;-68
2023/04/15 03:55:36;;;;;;;;;1.25;0.25;;;;;22.35;38.55;99886.19;5083269;27;45242;-68
2023/04/15 03:58:02;;;;;;;;;1.00;1.00;;;;;22.37;38.39;99900.22;5082734;27;46298;-68
2023/04/15 04:00:27;;;;;;;;;0.25;0.25;;;;;22.35;38.41;99895.03;5078236;27;66065;-68
2023/04/15 04:02:53;;;;;;;;;0.75;0.75;;;;;22.35;38.80;99908.34;5090580;27;45286;-68
2023/04/15 04:05:18;;;;;;;;;2.00;2.00;;;;;22.36;38.21;99903.88;5078979;27;63552;-68
2023/04/15 04:07:43;;;;;;;;;0.25;0.25;;;;;22.37;38.23;99906.41;5084704;27;73734;-68
2023/04/15 04:10:09;;;;;;;;;1.00;1.00;;;;;22.36;38.35;99910.06;5079614;27;72639;-69
2023/04/15 04:12:34;;;;;;;;;1.00;1.00;;;;;22.34;38.60;99917.31;5078575;27;45496;-69
2023/04/15 04:15:00;;;;;;;;;0.25;0.25;;;;;22.35;38.04;99911.03;5077177;28;45293;-68
2023/04/15 04:17:25;;;;;;;;;0.00;0.00;;;;;22.34;38.22;99919.16;5080296;27;45322;-69
2023/04/15 04:19:51;;;;;;;;;1.00;1.00;;;;;22.36;38.60;99917.19;5077162;27;51374;-68
2023/04/15 04:22:16;;;;;;;;;2.00;0.50;;;;;22.33;38.56;99917.50;5078580;27;66581;-68
2023/04/15 04:24:41;;;;;;;;;0.00;0.00;;;;;22.31;38.73;99924.75;5081825;27;45358;-68
2023/04/15 04:27:07;;;;;;;;;1.50;1.00;;;;;22.34;38.15;99928.00;5059643;28;50659;-68
2023/04/15 04:29:32;;;;;;;;;0.25;0.25;;;;;22.33;38.66;99930.81;5073775;27;56770;-68
2023/04/15 04:31:57;;;;;;;;;0.00;0.00;;;;;22.35;38.57;99934.19;5077294;27;45409;-68
2023/04/15 04:34:23;;;;;;;;;0.00;0.00;;;;;22.33;38.12;99938.81;5080425;27;47700;-69
2023/04/15 04:36:48;;;;;;;;;1.25;1.00;;;;;22.34;38.21;99945.81;5079745;27;66472;-69
2023/04/15 04:39:13;;;;;;;;;1.00;1.00;;;;;22.32;38.27;99945.94;5070934;27;70748;-69
2023/04/15 04:41:39;;;;;;;;;1.00;1.00;;;;;22.32;38.06;99948.59;5078725;27;68418;-69
2023/04/15 04:44:04;;;;;;;;;2.00;1.00;;;;;22.33;38.49;99950.31;5078550;27;71025;-69
2023/04/15 04:46:29;;;;;;;;;2.25;0.25;;;;;22.32;38.22;99950.44;5087433;27;46586;-69
2023/04/15 04:48:54;;;;;;;;;0.00;0.00;;;;;22.31;38.53;99946.06;5078958;27;48909;-69
2023/04/15 04:51:20;;;;;;;;;0.00;0.00;;;;;22.31;38.05;99954.94;5078387;27;67065;-69
2023/04/15 04:53:45;;;;;;;;;0.00;0.00;;;;;22.33;38.66;99958.31;5077230;27;45415;-68
2023/04/15 04:56:11;;;;;;;;;0.25;0.25;;;;;22.33;38.50;99968.97;5071761;27;70946;-68
2023/04/15 04:58:37;;;;;;;;;0.25;0.25;;;;;22.31;38.51;99962.06;5078817;27;45412;-68
2023/04/15 05:01:02;;;;;;;;;1.00;1.00;;;;;22.34;38.00;99972.47;5078296;28;45456;-67
2023/04/15 05:03:28;;;;;;;;;0.00;0.00;;;;;22.33;38.42;99984.13;5075255;28;45706;-68
2023/04/15 05:05:53;;;;;;;;;2.00;0.00;;;;;22.31;38.40;99984.25;5075753;27;46150;-68
2023/04/15 05:08:19;;;;;;;;;0.00;0.00;;;;;22.30;38.61;99987.06;5077313;27;45476;-68
2023/04/15 05:10:44;;;;;;;;;0.00;0.00;;;;;22.32;38.45;100001.09;5080219;27;45708;-68
2023/04/15 05:13:10;;;;;;;;;0.25;0.25;;;;;22.31;38.52;100002.06;5070051;28;45334;-68
2023/04/15 05:15:38;;;;;;;;;2.00;0.00;;;;;22.31;38.16;100013.59;5074494;28;46815;-68
2023/04/15 05:18:03;;;;;;;;;0.00;0.00;;;;;22.30;38.53;100011.06;5076648;27;45521;-68
2023/04/15 05:20:29;;;;;;;;;1.25;0.00;;;;;22.30;38.58;100014.56;5080094;27;45513;-68
2023/04/15 05:22:54;;;;;;;;;0.00;0.00;;;;;22.30;38.47;100027.03;5078466;28;45381;-68
2023/04/15 05:25:20;;;;;;;;;0.25;0.25;;;;;22.30;38.76;100035.88;5074487;27;47961;-68
2023/04/15 05:27:45;;;;;;;;;1.25;0.00;;;;;22.31;38.53;100042.03;5079212;28;45654;-68
2023/04/15 05:30:10;;;;;;;;;0.00;0.00;;;;;22.28;38.36;100037.84;5073874;27;51932;-68
2023/04/15 05:32:36;;;;;;;;;0.00;0.00;;;;;22.30;38.53;100046.53;5075837;28;45521;-68
2023/04/15 05:35:01;;;;;;;;;0.50;0.00;;;;;22.30;37.94;100053.69;5073124;27;70405;-68
2023/04/15 05:37:27;;;;;;;;;0.00;0.00;;;;;22.27;38.08;100046.78;5078814;28;45320;-68
2023/04/15 05:39:52;;;;;;;;;0.75;0.00;;;;;22.29;38.10;100065.31;5082754;27;54074;-68
2023/04/15 05:42:17;;;;;;;;;0.00;0.00;;;;;22.27;38.13;100057.47;5079757;27;71737;-69
2023/04/15 05:44:43;;;;;;;;;0.00;0.00;;;;;22.29;38.28;100074.19;5080786;27;45521;-68
2023/04/15 05:47:09;;;;;;;;;0.00;0.00;;;;;22.29;38.50;100079.53;5076987;28;73594;-68
2023/04/15 05:49:35;;;;;;;;;1.00;0.00;;;;;22.29;38.01;100076.00;5076389;27;45473;-68
2023/04/15 05:52:00;;;;;;;;;2.25;0.00;;;;;22.27;38.44;100078.78;5075273;27;45568;-68
2023/04/15 05:54:26;;;;;;;;;0.00;0.00;;;;;22.28;37.92;100085.81;5074205;27;45405;-69
2023/04/15 05:56:52;;;;;;;;;0.00;0.00;;;;;22.27;37.89;100094.78;5076204;27;45445;-69
2023/04/15 05:59:17;;;;;;;;;0.00;0.00;;;;;22.23;38.39;100096.00;5075639;27;46764;-69
2023/04/15 06:01:43;;;;;;;;;0.00;0.00;;;;;22.28;38.19;100111.63;5078453;28;45452;-69
2023/04/15 06:04:10;;;;;;;;;0.00;0.00;;;;;22.26;38.25;100114.41;5078853;28;45758;-69
2023/04/15 06:06:36;;;;;;;;;0.00;0.00;;;;;22.27;38.40;100120.59;5078399;27;45463;-68
2023/04/15 06:09:01;;;;;;;;;0.00;0.00;;;;;22.28;38.04;100124.97;5077364;27;45335;-68
2023/04/15 06:11:27;;;;;;;;;0.00;0.00;;;;;22.26;38.48;100125.06;5075714;28;45893;-69
2023/04/15 06:13:52;;;;;;;;;0.00;0.00;;;;;22.26;38.16;100126.88;5055493;28;47303;-69
2023/04/15 06:16:17;;;;;;;;;0.75;0.00;;;;;22.25;38.15;100127.84;5077746;27;66284;-69
2023/04/15 06:18:43;;;;;;;;;0.75;0.00;;;;;22.27;38.32;100141.91;5080243;27;45459;-68
2023/04/15 06:21:08;;;;;;;;;0.00;0.00;;;;;22.28;37.88;100151.63;5077957;27;45372;-68
2023/04/15 06:23:35;;;;;;;;;2.00;0.00;;;;;22.27;38.00;100161.41;5077051;28;52635;-69
2023/04/15 06:26:01;;;;;;;;;0.00;0.00;;;;;22.23;38.44;100161.78;5077803;28;45543;-69
2023/04/15 06:28:26;;;;;;;;;0.00;0.00;;;;;22.30;37.95;100173.66;5079608;27;45528;-68
2023/04/15 06:30:52;;;;;;;;;0.00;0.00;;;;;22.29;38.23;100177.28;5078703;27;68505;-68
2023/04/15 06:33:18;;;;;;;;;0.00;0.00;;;;;22.30;37.86;100184.31;5069353;27;45497;-69
2023/04/15 06:35:43;;;;;;;;;0.00;0.00;;;;;22.30;37.94;100189.66;5078394;27;45409;-69
2023/04/15 06:38:08;;;;;;;;;0.00;0.00;;;;;22.34;37.88;100196.41;5075294;27;65842;-68
2023/04/15 06:40:35;;;;;;;;;0.00;0.00;;;;;22.34;38.26;100201.72;5053820;28;45380;-68
2023/04/15 06:43:01;;;;;;;;;1.00;0.00;;;;;22.34;38.15;100205.22;5070697;27;46405;-68
2023/04/15 06:45:26;;;;;;;;;0.00;0.00;;;;;22.34;37.96;100205.22;5087154;27;63594;-68
2023/04/15 06:47:51;;;;;;;;;0.00;0.00;;;;;22.35;38.54;100214.94;5077055;28;63538;-68
2023/04/15 06:50:17;;;;;;;;;0.00;0.00;;;;;22.37;38.08;100217.47;5078035;27;64426;-71
2023/04/15 06:52:42;;;;;;;;;0.00;0.00;;;;;22.40;38.22;100225.22;5075959;27;45585;-74
2023/04/15 06:55:08;;;;;;;;;0.00;0.00;;;;;22.41;38.36;100226.91;5073777;28;46111;-75
2023/04/15 06:57:34;;;;;;;;;0.00;0.00;;;;;22.35;38.18;100227.44;5066948;27;45435;-70
2023/04/15 06:59:59;;;;;;;;;2.25;0.00;;;;;22.41;38.16;100234.06;5078717;27;72629;-68
2023/04/15 07:02:25;;;;;;;;;1.75;1.00;;;;;22.44;37.92;100247.13;5077154;27;45206;-68
2023/04/15 07:04:50;;;;;;;;;1.00;0.00;;;;;22.46;38.23;100253.19;5072846;28;68831;-72
2023/04/15 07:07:16;;;;;;;;;2.00;0.00;;;;;22.43;37.90;100254.25;5089542;27;59751;-72
2023/04/15 07:09:41;;;;;;;;;0.25;0.00;;;;;22.42;37.79;100259.75;5083542;27;45247;-72
2023/04/15 07:12:07;;;;;;;;;0.50;0.00;;;;;22.41;38.10;100263.38;5074690;27;46581;-72
2023/04/15 07:14:32;;;;;;;;;1.00;1.00;;;;;22.39;37.57;100276.00;5073917;27;71803;-73
2023/04/15 07:16:57;;;;;;;;;2.50;0.25;;;;;22.40;37.70;100275.88;5075905;27;64630;-69
2023/04/15 07:19:23;;;;;;;;;0.00;0.00;;;;;22.36;38.00;100285.97;5074381;27;67456;-72
2023/04/15 07:21:48;;;;;;;;;1.00;0.00;;;;;22.36;37.87;100293.09;5076164;28;67589;-73
2023/04/15 07:24:17;;;;;;;;;0.00;0.00;;;;;22.34;37.75;100298.53;5073584;27;45499;-72
2023/04/15 07:26:43;;;;;;;;;1.00;0.00;;;;;22.35;37.92;100302.91;5077867;27;45390;-70
2023/04/15 07:29:08;;;;;;;;;0.00;0.00;;;;;22.30;38.01;100296.28;5075134;27;45658;-68
2023/04/15 07:31:35;;;;;;;;;0.50;0.50;;;;;22.28;38.03;100309.72;5059230;27;45902;-73
2023/04/15 07:34:01;;;;;;;;;1.00;1.00;;;;;22.28;37.92;100317.72;5076158;28;45693;-71
2023/04/15 07:36:27;;;;;;;;;1.25;1.25;;;;;22.28;37.86;100330.22;5073174;28;45288;-77
2023/04/15 07:38:54;;;;;;;;;0.75;0.75;;;;;22.25;38.02;100319.78;5075983;27;45378;-69
2023/04/15 07:41:19;;;;;;;;;2.00;0.00;;;;;22.23;37.80;100324.38;5062241;28;48060;-68
2023/04/15 07:43:45;;;;;;;;;0.00;0.00;;;;;22.23;37.37;100327.06;5078012;27;45379;-69
2023/04/15 07:46:10;;;;;;;;;0.25;0.25;;;;;22.25;38.06;100335.75;5062522;27;45787;-68
2023/04/15 07:48:36;;;;;;;;;0.50;0.25;;;;;22.24;37.77;100334.06;5081435;27;45459;-69
2023/04/15 07:51:02;;;;;;;;;0.00;0.00;;;;;22.25;37.78;100339.25;5071251;27;45340;-68
2023/04/15 07:53:27;;;;;;;;;0.75;0.00;;;;;22.22;37.50;100347.50;5080336;27;45469;-68
2023/04/15 07:55:53;;;;;;;;;0.25;0.25;;;;;22.29;37.52;100367.41;5080797;28;45267;-69
2023/04/15 07:58:18;;;;;;;;;0.00;0.00;;;;;22.31;38.07;100367.25;5079472;27;64312;-67
2023/04/15 08:00:43;;;;;;;;;4.00;0.50;;;;;22.30;37.87;100374.44;5071016;27;47031;-66
2023/04/15 08:03:08;;;;;;;;;1.00;0.25;;;;;22.35;37.84;100374.06;5081398;27;69801;-67
2023/04/15 08:05:34;;;;;;;;;0.00;0.00;;;;;22.39;38.13;100390.66;5077772;28;66499;-70
2023/04/15 08:08:00;;;;;;;;;1.50;0.50;;;;;22.41;37.99;100397.53;5059559;27;45546;-68
2023/04/15 08:10:26;;;;;;;;;0.75;0.25;;;;;22.43;38.18;100392.91;5079155;27;45453;-68
2023/04/15 08:12:53;;;;;;;;;0.50;0.25;;;;;22.44;38.43;100397.28;5079983;27;45493;-68
2023/04/15 08:15:19;;;;;;;;;5.00;1.50;;;;;22.46;38.34;100406.00;5086059;27;45445;-67
2023/04/15 08:17:44;;;;;;;;;2.00;1.00;;;;;22.48;37.91;100414.72;5080615;28;46365;-67
2023/04/15 08:20:10;;;;;;;;;0.75;0.00;;;;;22.47;38.48;100412.19;5078484;27;70721;-68
2023/04/15 08:22:35;;;;;;;;;0.00;0.00;;;;;22.50;37.81;100428.78;5085776;27;45264;-68
2023/04/15 08:25:01;;;;;;;;;0.00;0.00;;;;;22.53;38.52;100433.03;5073860;27;45821;-67
2023/04/15 08:27:26;;;;;;;;;3.25;1.00;;;;;22.54;38.30;100434.69;5088060;27;48314;-68
2023/04/15 08:29:51;;;;;;;;;0.00;0.00;;;;;22.54;38.42;100443.56;5075174;27;71729;-68
2023/04/15 08:32:17;;;;;;;;;1.50;0.00;;;;;22.58;37.96;100443.31;5089235;27;45245;-68
2023/04/15 08:34:43;;;;;;;;;0.50;0.00;;;;;22.58;38.31;100446.81;5087763;27;45515;-68
2023/04/15 08:37:08;;;;;;;;;3.25;0.25;;;;;22.59;38.43;100453.84;5079615;27;68459;-68
2023/04/15 08:39:34;;;;;;;;;0.00;0.00;;;;;22.56;37.97;100449.63;5080115;27;73193;-68
2023/04/15 08:42:05;;;;;;;;;0.00;0.00;;;;;22.61;38.34;100465.25;5076340;27;45444;-68
2023/04/15 08:44:33;;;;;;;;;2.00;0.00;;;;;22.63;38.32;100473.09;5058724;28;45406;-67
2023/04/15 08:47:04;;;;;;;;;0.00;0.00;;;;;22.63;37.91;100473.09;5077605;27;45404;-68
2023/04/15 08:49:31;;;;;;;;;0.00;0.00;;;;;22.61;38.51;100486.59;5078629;27;45505;-68
2023/04/15 08:51:58;;;;;;;;;0.75;0.75;;;;;22.64;38.46;100488.97;5075781;27;45355;-68
2023/04/15 08:54:23;;;;;;;;;0.00;0.00;;;;;22.63;38.32;100495.31;5056754;27;45425;-68
2023/04/15 08:56:49;;;;;;;;;0.25;0.25;;;;;22.65;37.97;100500.53;5079244;27;65278;-68
2023/04/15 08:59:15;;;;;;;;;0.00;0.00;;;;;22.62;37.94;100506.94;5073404;27;67488;-68
2023/04/15 09:01:40;;;;;;;;;0.00;0.00;;;;;22.65;38.38;100514.69;5078387;27;45710;-68
2023/04/15 09:04:06;;;;;;;;;0.00;0.00;;;;;22.64;38.26;100521.00;5079332;28;45473;-68
2023/04/15 09:06:32;;;;;;;;;0.00;0.00;;;;;22.65;37.88;100521.88;5062946;28;45387;-68
2023/04/15 09:08:58;;;;;;;;;0.00;0.00;;;;;22.66;38.23;100537.72;5082148;27;45585;-68
2023/04/15 09:11:23;;;;;;;;;0.25;0.25;;;;;22.67;38.26;100539.44;5085906;27;45445;-68
2023/04/15 09:13:49;;;;;;;;;1.75;0.00;;;;;22.66;38.02;100540.38;5065064;27;45496;-68
2023/04/15 09:16:14;;;;;;;;;0.00;0.00;;;;;22.67;38.23;100551.94;5094439;27;45472;-68
2023/04/15 09:18:40;;;;;;;;;0.00;0.00;;;;;22.68;38.46;100549.13;5076963;27;70688;-68
2023/04/15 09:21:07;;;;;;;;;0.25;0.00;;;;;22.70;38.12;100557.00;5076933;27;45318;-68
2023/04/15 09:23:34;;;;;;;;;0.00;0.00;;;;;22.70;38.55;100554.31;5076992;27;45322;-67
2023/04/15 09:26:01;;;;;;;;;0.00;0.00;;;;;22.73;38.48;100559.41;5076939;28;45330;-68
2023/04/15 09:28:27;;;;;;;;;0.00;0.00;;;;;22.72;38.43;100568.41;5077864;27;45565;-68
2023/04/15 09:30:57;;;;;;;;;0.25;0.00;;;;;22.72;38.07;100565.75;5077191;27;45590;-68
2023/04/15 09:33:23;;;;;;;;;0.00;0.00;;;;;22.74;38.07;100574.47;5078638;27;45931;-68
2023/04/15 09:35:56;;;;;;;;;0.00;0.00;;;;;22.74;37.93;100588.63;5072339;27;45382;-68
2023/04/15 09:38:22;;;;;;;;;0.00;0.00;;;;;22.74;38.43;100579.81;5072743;27;47434;-68
2023/04/15 09:40:47;;;;;;;;;0.75;0.00;;;;;22.75;37.97;100601.03;5076885;27;65011;-68
2023/04/15 09:43:13;;;;;;;;;1.50;0.00;;;;;22.68;38.16;100578.47;5072725;28;66978;-68
2023/04/15 09:45:38;;;;;;;;;0.50;0.50;;;;;22.74;38.04;100604.66;5074764;27;45288;-68
2023/04/15 09:48:17;;;;;;;;;0.00;0.00;;;;;22.69;38.37;100601.50;5065990;27;63968;-68
2023/04/15 09:50:43;;;;;;;;;0.00;0.00;;;;;22.72;37.77;100608.44;5073968;28;45352;-68
2023/04/15 09:53:11;;;;;;;;;0.75;0.00;;;;;22.71;37.88;100620.06;5050732;27;45487;-68
2023/04/15 09:55:36;;;;;;;;;0.00;0.00;;;;;22.74;38.29;100625.16;5071597;27;45277;-68
2023/04/15 09:58:07;;;;;;;;;0.00;0.00;;;;;22.69;37.96;100620.16;5075164;27;45657;-68
2023/04/15 10:00:33;;;;;;;;;1.00;0.00;;;;;22.69;38.48;100624.66;5076875;27;46096;-68
2023/04/15 10:02:58;;;;;;;;;0.00;0.00;;;;;22.73;38.46;100637.66;5054670;28;71197;-68
2023/04/15 10:05:24;;;;;;;;;0.00;0.00;;;;;22.70;38.02;100640.56;5073705;27;67694;-68
2023/04/15 10:07:50;;;;;;;;;0.00;0.00;;;;;22.72;38.26;100643.94;5076358;27;48186;-68
2023/04/15 10:10:16;;;;;;;;;0.00;0.00;;;;;22.70;38.29;100648.56;5074852;27;51401;-68
2023/04/15 10:12:42;;;;;;;;;0.00;0.00;;;;;22.73;38.10;100659.00;5073388;27;45259;-68
2023/04/15 10:15:15;;;;;;;;;0.00;0.00;;;;;22.74;38.34;100662.50;5075020;27;45469;-68
2023/04/15 10:17:42;;;;;;;;;0.00;0.00;;;;;22.73;37.98;100659.00;5071847;28;46344;-68
2023/04/15 10:20:09;;;;;;;;;0.00;0.00;;;;;22.74;38.21;100659.84;5073225;27;45492;-68
2023/04/15 10:22:35;;;;;;;;;0.25;0.25;;;;;22.74;38.31;100663.34;5078368;27;45410;-69
2023/04/15 10:25:01;;;;;;;;;0.75;0.00;;;;;22.74;38.25;100674.00;5073457;28;45319;-68
2023/04/15 10:27:27;;;;;;;;;0.00;0.00;;;;;22.75;37.81;100675.72;5077851;28;46410;-68
2023/04/15 10:29:53;;;;;;;;;0.00;0.00;;;;;22.76;38.27;100676.56;5070761;27;45620;-68
2023/04/15 10:32:20;;;;;;;;;0.00;0.00;;;;;22.77;38.32;100672.06;5073259;27;64681;-68
2023/04/15 10:34:46;;;;;;;;;0.75;0.00;;;;;22.78;37.76;100687.13;5073005;28;45680;-68
2023/04/15 10:37:12;;;;;;;;;0.00;0.00;;;;;22.75;38.34;100685.53;5070300;27;45310;-68
2023/04/15 10:39:38;;;;;;;;;2.50;0.00;;;;;22.78;38.14;100687.13;5076750;27;70217;-68
2023/04/15 10:42:10;;;;;;;;;1.25;0.75;;;;;22.77;38.22;100680.06;5071834;28;45389;-68
2023/04/15 10:44:37;;;;;;;;;1.00;1.00;;;;;22.77;38.02;100691.63;5068697;28;45309;-68
2023/04/15 10:47:11;;;;;;;;;1.00;0.75;;;;;22.79;38.28;100692.34;5071162;28;45401;-68
2023/04/15 10:49:44;;;;;;;;;1.00;1.00;;;;;22.78;38.21;100701.28;5050389;27;45762;-68
2023/04/15 10:52:09;;;;;;;;;0.00;0.00;;;;;22.76;38.22;100700.56;5073292;27;45292;-68
2023/04/15 10:54:37;;;;;;;;;1.25;0.25;;;;;22.77;38.38;100712.97;5076812;27;45410;-68
2023/04/15 10:57:02;;;;;;;;;0.25;0.25;;;;;22.77;37.90;100718.28;5066945;28;45443;-68
2023/04/15 10:59:32;;;;;;;;;0.33;0.33;;;;;22.75;37.88;100713.06;5069993;27;45474;-68
2023/04/15 11:02:02;;;;;;;;;0.00;0.00;;;;;22.76;38.09;100721.91;5077268;27;45361;-68
2023/04/15 11:04:56;;;;;;;;;0.25;0.25;;;;;22.77;37.81;100720.97;5060446;28;45597;-69
2023/04/15 11:07:47;;;;;;;;;0.25;0.25;;;;;22.73;37.97;100724.81;5072156;28;46409;-68
2023/04/15 11:10:12;;;;;;;;;1.75;0.00;;;;;22.77;37.84;100731.63;5086446;27;45765;-68
2023/04/15 11:12:38;;;;;;;;;0.00;0.00;;;;;22.75;38.12;100734.41;5079685;27;45307;-68
2023/04/15 11:15:30;;;;;;;;;0.00;0.00;;;;;22.78;37.79;100738.66;5074510;27;45545;-68
2023/04/15 11:18:14;;;;;;;;;1.75;0.00;;;;;22.77;38.18;100741.44;5055524;27;45350;-68
2023/04/15 11:20:41;;;;;;;;;0.00;0.00;;;;;22.74;37.73;100743.38;5077209;27;45299;-68
2023/04/15 11:23:08;;;;;;;;;0.00;0.00;;;;;22.73;37.99;100741.69;5058825;28;45375;-68
2023/04/15 11:25:36;;;;;;;;;1.00;1.00;;;;;22.79;38.27;100760.84;5064600;28;45528;-68